WHTO2: S Canadian Riv, Whitefield, OK

Data processed at Thu Apr 19 2018 23:46


All information presented herein is the property of the government of the United States of America and may be revised or deleted at any time without prior notice.
Dissemination of this information without the expressed written consent of the Public Affairs Office, Tulsa District U.S. Army Corps of Engineers is strictly prohibited.
These data are gathered electronically and, as presented, have not undergone any form of quality control. These data are not guaranteed to be valid or correct.
Go to home page.
Go to station list.

Upstream stations:

Downstream station:
Previous Day
Next Day
Current Day
    
SHEF ID:       WHTO2     Canadian River near Whitefield,
STATION TYPE:  

               PRECIP     STAGE  STAGE(2)  RIV-FLOW  BAT-LOAD
                   in        ft        ft       cfs      volt
              Ccp-Rev   Ccp-Rev   Ccp-Rev   Ccp-Rev   Ccp-Rev
(US/Central)
04/17 00:00      ----      7.02      7.03     12642     12.55
04/17 01:00      ----      7.05      7.03     12767     12.54
04/17 02:00      ----      7.04      7.05     12725     12.53
04/17 03:00      ----      7.04      7.05     12725     12.50
04/17 04:00      ----      7.04      7.05     12725     12.49
04/17 05:00      ----      7.04      7.05     12725     12.47
04/17 06:00      ----      7.04      7.05     12725     12.44
04/17 07:00      ----      7.05      7.05     12767     12.43
04/17 08:00      ----      7.04      7.05     12725     12.52
04/17 09:00      ----      7.05      7.01     12767     12.88
04/17 10:00      ----      7.04      7.03     12725     13.51
04/17 11:00      ----      7.05      7.01     12767     13.78
04/17 12:00      ----      7.04      7.02     12725     13.89
04/17 13:00      ----      7.04      7.00     12725     13.85
04/17 14:00      ----      7.03      7.01     12683     13.54
04/17 15:00      ----      6.86      6.85     11985     13.81
04/17 16:00      ----      6.63      6.60     11077     13.74
04/17 17:00      ----      6.41      6.35     10249     13.64
04/17 18:00      ----      6.22      6.16      9564     13.60
04/17 19:00      ----      6.09      6.04      9112     13.60
04/17 20:00      ----      5.91      5.86      8507     13.17
04/17 21:00      ----      5.56      5.50      7402     12.80
04/17 22:00      ----      5.09      5.03      5993     12.61
04/17 23:00      ----      4.61      4.53      4721     12.54